Terminal Aerodrome Forecast
Issued by NWS Charleston, WV

Home | Current Version | Previous Version | Text Only | Print | Product List | Glossary On
Versions: 1 2 3 4 5 6 7 8 9 10 11 12 13 14 15 16 17 18 19 20 21 22
000
FTUS41 KRLX 252335
TAFEKN
TAF
KEKN 252335Z 2600/2624 00000KT P6SM SKC
     FM260600 00000KT 4SM BR SCT027
     FM260700 00000KT 1/4SM FG SCT001
     FM261200 00000KT 1SM BR BKN005
     FM261400 18004KT P6SM BKN040
     FM262200 22008KT 5SM SHRA VCTS BKN027CB=

USA.gov is the U.S. government's official web portal to all federal, state and local government web resources and services.